sensor_id;sensor_type;location;lat;lon;timestamp;P1;durP1;ratioP1;P2;durP2;ratioP2
9080;SDS011;13509;50.760;6.080;2023-02-01T00:01:20;29.73;;;13.37;;
9080;SDS011;13509;50.760;6.080;2023-02-01T00:03:48;24.30;;;13.07;;
9080;SDS011;13509;50.760;6.080;2023-02-01T00:06:16;25.10;;;12.93;;
9080;SDS011;13509;50.760;6.080;2023-02-01T00:08:44;37.33;;;13.97;;
9080;SDS011;13509;50.760;6.080;2023-02-01T00:11:14;31.77;;;14.33;;
9080;SDS011;13509;50.760;6.080;2023-02-01T00:13:42;34.30;;;14.27;;
9080;SDS011;13509;50.760;6.080;2023-02-01T00:16:11;28.43;;;13.47;;
9080;SDS011;13509;50.760;6.080;2023-02-01T00:18:40;28.27;;;13.53;;
9080;SDS011;13509;50.760;6.080;2023-02-01T00:21:09;33.63;;;12.33;;
9080;SDS011;13509;50.760;6.080;2023-02-01T00:23:38;30.30;;;13.03;;
9080;SDS011;13509;50.760;6.080;2023-02-01T00:26:06;26.63;;;11.23;;
9080;SDS011;13509;50.760;6.080;2023-02-01T00:28:36;24.60;;;11.30;;
9080;SDS011;13509;50.760;6.080;2023-02-01T00:31:05;22.17;;;12.27;;
9080;SDS011;13509;50.760;6.080;2023-02-01T00:33:33;25.87;;;11.70;;
9080;SDS011;13509;50.760;6.080;2023-02-01T00:36:02;26.23;;;10.83;;
9080;SDS011;13509;50.760;6.080;2023-02-01T00:38:31;22.90;;;11.10;;
9080;SDS011;13509;50.760;6.080;2023-02-01T00:41:03;23.27;;;11.03;;
9080;SDS011;13509;50.760;6.080;2023-02-01T00:43:31;26.57;;;11.43;;
9080;SDS011;13509;50.760;6.080;2023-02-01T00:46:01;27.20;;;10.70;;
9080;SDS011;13509;50.760;6.080;2023-02-01T00:48:30;20.67;;;10.20;;
9080;SDS011;13509;50.760;6.080;2023-02-01T00:50:58;28.17;;;11.67;;
9080;SDS011;13509;50.760;6.080;2023-02-01T00:53:27;22.00;;;9.83;;
9080;SDS011;13509;50.760;6.080;2023-02-01T00:55:55;22.77;;;9.50;;
9080;SDS011;13509;50.760;6.080;2023-02-01T00:58:24;22.97;;;9.67;;
9080;SDS011;13509;50.760;6.080;2023-02-01T01:01:01;32.50;;;10.00;;
9080;SDS011;13509;50.760;6.080;2023-02-01T01:03:30;25.70;;;11.53;;
9080;SDS011;13509;50.760;6.080;2023-02-01T01:06:00;23.03;;;8.90;;
9080;SDS011;13509;50.760;6.080;2023-02-01T01:08:29;29.10;;;9.07;;
9080;SDS011;13509;50.760;6.080;2023-02-01T01:10:57;22.27;;;9.53;;
9080;SDS011;13509;50.760;6.080;2023-02-01T01:13:25;19.17;;;8.13;;
9080;SDS011;13509;50.760;6.080;2023-02-01T01:15:53;21.53;;;9.73;;
9080;SDS011;13509;50.760;6.080;2023-02-01T01:18:23;27.63;;;10.03;;
9080;SDS011;13509;50.760;6.080;2023-02-01T01:20:51;22.47;;;10.10;;
9080;SDS011;13509;50.760;6.080;2023-02-01T01:23:19;28.13;;;10.70;;
9080;SDS011;13509;50.760;6.080;2023-02-01T01:25:47;25.83;;;10.87;;
9080;SDS011;13509;50.760;6.080;2023-02-01T01:28:15;22.17;;;10.60;;
9080;SDS011;13509;50.760;6.080;2023-02-01T01:30:43;21.33;;;9.00;;
9080;SDS011;13509;50.760;6.080;2023-02-01T01:33:12;23.63;;;9.63;;
9080;SDS011;13509;50.760;6.080;2023-02-01T01:35:42;22.57;;;9.53;;
9080;SDS011;13509;50.760;6.080;2023-02-01T01:38:10;23.30;;;9.90;;
9080;SDS011;13509;50.760;6.080;2023-02-01T01:40:38;25.77;;;9.60;;
9080;SDS011;13509;50.760;6.080;2023-02-01T01:43:11;19.87;;;8.97;;
9080;SDS011;13509;50.760;6.080;2023-02-01T01:45:40;26.93;;;9.57;;
9080;SDS011;13509;50.760;6.080;2023-02-01T01:48:09;22.33;;;9.60;;
9080;SDS011;13509;50.760;6.080;2023-02-01T01:50:42;21.20;;;8.20;;
9080;SDS011;13509;50.760;6.080;2023-02-01T01:53:15;29.07;;;9.67;;
9080;SDS011;13509;50.760;6.080;2023-02-01T01:55:44;26.73;;;9.00;;
9080;SDS011;13509;50.760;6.080;2023-02-01T01:58:14;23.53;;;10.00;;
9080;SDS011;13509;50.760;6.080;2023-02-01T02:00:43;29.77;;;8.93;;
9080;SDS011;13509;50.760;6.080;2023-02-01T02:03:13;22.63;;;8.87;;
9080;SDS011;13509;50.760;6.080;2023-02-01T02:05:43;28.93;;;8.57;;
9080;SDS011;13509;50.760;6.080;2023-02-01T02:08:12;17.87;;;8.00;;
9080;SDS011;13509;50.760;6.080;2023-02-01T02:10:40;22.73;;;8.50;;
9080;SDS011;13509;50.760;6.080;2023-02-01T02:13:27;29.27;;;8.10;;
9080;SDS011;13509;50.760;6.080;2023-02-01T02:16:02;25.63;;;8.30;;
9080;SDS011;13509;50.760;6.080;2023-02-01T02:18:33;21.10;;;8.30;;
9080;SDS011;13509;50.760;6.080;2023-02-01T02:21:18;23.77;;;9.13;;
9080;SDS011;13509;50.760;6.080;2023-02-01T02:26:39;25.07;;;8.60;;
9080;SDS011;13509;50.760;6.080;2023-02-01T02:29:15;21.50;;;7.40;;
9080;SDS011;13509;50.760;6.080;2023-02-01T02:31:59;28.47;;;8.10;;
9080;SDS011;13509;50.760;6.080;2023-02-01T02:34:33;20.10;;;6.77;;
9080;SDS011;13509;50.760;6.080;2023-02-01T02:37:07;24.87;;;8.13;;
9080;SDS011;13509;50.760;6.080;2023-02-01T02:39:41;24.03;;;7.80;;
9080;SDS011;13509;50.760;6.080;2023-02-01T02:42:13;24.50;;;8.00;;
9080;SDS011;13509;50.760;6.080;2023-02-01T02:45:02;25.33;;;9.00;;
9080;SDS011;13509;50.760;6.080;2023-02-01T02:47:50;22.47;;;8.00;;
9080;SDS011;13509;50.760;6.080;2023-02-01T02:50:23;23.10;;;8.60;;
9080;SDS011;13509;50.760;6.080;2023-02-01T02:53:10;22.93;;;8.77;;
9080;SDS011;13509;50.760;6.080;2023-02-01T02:55:58;28.87;;;9.90;;
9080;SDS011;13509;50.760;6.080;2023-02-01T02:58:44;33.10;;;11.10;;
9080;SDS011;13509;50.760;6.080;2023-02-01T03:01:31;28.40;;;9.60;;
9080;SDS011;13509;50.760;6.080;2023-02-01T03:04:17;21.03;;;9.50;;
9080;SDS011;13509;50.760;6.080;2023-02-01T03:06:48;23.57;;;10.60;;
9080;SDS011;13509;50.760;6.080;2023-02-01T03:09:18;19.27;;;9.23;;
9080;SDS011;13509;50.760;6.080;2023-02-01T03:11:48;24.50;;;10.40;;
9080;SDS011;13509;50.760;6.080;2023-02-01T03:14:35;21.17;;;10.43;;
9080;SDS011;13509;50.760;6.080;2023-02-01T03:17:06;21.33;;;9.60;;
9080;SDS011;13509;50.760;6.080;2023-02-01T03:19:37;22.73;;;9.17;;
9080;SDS011;13509;50.760;6.080;2023-02-01T03:22:11;21.23;;;9.23;;
9080;SDS011;13509;50.760;6.080;2023-02-01T03:24:41;28.13;;;9.77;;
9080;SDS011;13509;50.760;6.080;2023-02-01T03:27:13;26.70;;;8.90;;
9080;SDS011;13509;50.760;6.080;2023-02-01T03:29:44;27.17;;;9.03;;
9080;SDS011;13509;50.760;6.080;2023-02-01T03:32:16;28.27;;;9.07;;
9080;SDS011;13509;50.760;6.080;2023-02-01T03:34:45;29.50;;;8.83;;
9080;SDS011;13509;50.760;6.080;2023-02-01T03:37:15;18.37;;;7.73;;
9080;SDS011;13509;50.760;6.080;2023-02-01T03:39:45;21.10;;;8.30;;
9080;SDS011;13509;50.760;6.080;2023-02-01T03:42:16;25.40;;;8.27;;
9080;SDS011;13509;50.760;6.080;2023-02-01T03:44:47;20.57;;;7.77;;
9080;SDS011;13509;50.760;6.080;2023-02-01T03:47:17;20.03;;;6.60;;
9080;SDS011;13509;50.760;6.080;2023-02-01T03:49:48;21.77;;;6.40;;
9080;SDS011;13509;50.760;6.080;2023-02-01T03:52:20;14.93;;;6.47;;
9080;SDS011;13509;50.760;6.080;2023-02-01T03:54:50;15.33;;;6.90;;
9080;SDS011;13509;50.760;6.080;2023-02-01T03:57:18;21.33;;;7.00;;
9080;SDS011;13509;50.760;6.080;2023-02-01T03:59:49;19.53;;;6.50;;
9080;SDS011;13509;50.760;6.080;2023-02-01T04:02:17;17.93;;;6.00;;
9080;SDS011;13509;50.760;6.080;2023-02-01T04:04:46;16.70;;;5.90;;
9080;SDS011;13509;50.760;6.080;2023-02-01T04:07:14;14.53;;;5.33;;
9080;SDS011;13509;50.760;6.080;2023-02-01T04:09:44;21.50;;;6.03;;
9080;SDS011;13509;50.760;6.080;2023-02-01T04:12:12;17.47;;;4.43;;
9080;SDS011;13509;50.760;6.080;2023-02-01T04:14:40;17.87;;;4.73;;
9080;SDS011;13509;50.760;6.080;2023-02-01T04:17:09;13.00;;;4.10;;
9080;SDS011;13509;50.760;6.080;2023-02-01T04:19:37;14.70;;;4.97;;
9080;SDS011;13509;50.760;6.080;2023-02-01T04:22:05;16.23;;;4.23;;
9080;SDS011;13509;50.760;6.080;2023-02-01T04:24:33;19.83;;;4.23;;
9080;SDS011;13509;50.760;6.080;2023-02-01T04:27:04;15.83;;;4.03;;
9080;SDS011;13509;50.760;6.080;2023-02-01T04:29:32;12.97;;;3.47;;
9080;SDS011;13509;50.760;6.080;2023-02-01T04:32:00;12.37;;;3.73;;
9080;SDS011;13509;50.760;6.080;2023-02-01T04:34:28;13.73;;;3.67;;
9080;SDS011;13509;50.760;6.080;2023-02-01T04:36:56;18.00;;;3.80;;
9080;SDS011;13509;50.760;6.080;2023-02-01T04:39:25;18.60;;;3.80;;
9080;SDS011;13509;50.760;6.080;2023-02-01T04:41:53;16.57;;;3.80;;
9080;SDS011;13509;50.760;6.080;2023-02-01T04:44:22;17.47;;;3.60;;
9080;SDS011;13509;50.760;6.080;2023-02-01T04:46:51;16.17;;;3.10;;
9080;SDS011;13509;50.760;6.080;2023-02-01T04:49:19;21.63;;;4.47;;
9080;SDS011;13509;50.760;6.080;2023-02-01T04:51:48;16.77;;;3.83;;
9080;SDS011;13509;50.760;6.080;2023-02-01T04:54:16;23.33;;;4.27;;
9080;SDS011;13509;50.760;6.080;2023-02-01T04:56:44;16.53;;;3.63;;
9080;SDS011;13509;50.760;6.080;2023-02-01T04:59:12;14.80;;;3.53;;
9080;SDS011;13509;50.760;6.080;2023-02-01T05:01:42;21.83;;;3.27;;
9080;SDS011;13509;50.760;6.080;2023-02-01T05:04:13;12.37;;;3.30;;
9080;SDS011;13509;50.760;6.080;2023-02-01T05:06:41;13.57;;;3.50;;
9080;SDS011;13509;50.760;6.080;2023-02-01T05:09:09;14.83;;;3.50;;
9080;SDS011;13509;50.760;6.080;2023-02-01T05:11:37;19.10;;;4.10;;
9080;SDS011;13509;50.760;6.080;2023-02-01T05:14:23;17.30;;;4.13;;
9080;SDS011;13509;50.760;6.080;2023-02-01T05:16:52;27.70;;;4.03;;
9080;SDS011;13509;50.760;6.080;2023-02-01T05:19:21;15.43;;;3.80;;
9080;SDS011;13509;50.760;6.080;2023-02-01T05:21:49;21.27;;;4.27;;
9080;SDS011;13509;50.760;6.080;2023-02-01T05:24:17;25.93;;;3.50;;
9080;SDS011;13509;50.760;6.080;2023-02-01T05:26:46;17.70;;;3.40;;
9080;SDS011;13509;50.760;6.080;2023-02-01T05:29:15;16.83;;;4.23;;
9080;SDS011;13509;50.760;6.080;2023-02-01T05:31:43;13.17;;;4.20;;
9080;SDS011;13509;50.760;6.080;2023-02-01T05:34:13;18.57;;;3.87;;
9080;SDS011;13509;50.760;6.080;2023-02-01T05:36:42;20.80;;;3.83;;
9080;SDS011;13509;50.760;6.080;2023-02-01T05:39:12;15.07;;;3.93;;
9080;SDS011;13509;50.760;6.080;2023-02-01T05:41:40;19.37;;;3.67;;
9080;SDS011;13509;50.760;6.080;2023-02-01T05:44:09;17.30;;;4.17;;
9080;SDS011;13509;50.760;6.080;2023-02-01T05:46:37;17.17;;;4.07;;
9080;SDS011;13509;50.760;6.080;2023-02-01T05:49:06;16.37;;;4.10;;
9080;SDS011;13509;50.760;6.080;2023-02-01T05:51:35;20.47;;;3.77;;
9080;SDS011;13509;50.760;6.080;2023-02-01T05:54:03;19.50;;;4.33;;
9080;SDS011;13509;50.760;6.080;2023-02-01T05:56:32;15.47;;;4.43;;
9080;SDS011;13509;50.760;6.080;2023-02-01T05:59:01;22.57;;;4.00;;
9080;SDS011;13509;50.760;6.080;2023-02-01T06:01:29;9.40;;;3.10;;
9080;SDS011;13509;50.760;6.080;2023-02-01T06:03:57;25.43;;;4.00;;
9080;SDS011;13509;50.760;6.080;2023-02-01T06:06:25;17.53;;;3.67;;
9080;SDS011;13509;50.760;6.080;2023-02-01T06:08:55;15.47;;;4.83;;
9080;SDS011;13509;50.760;6.080;2023-02-01T06:11:24;15.97;;;3.90;;
9080;SDS011;13509;50.760;6.080;2023-02-01T06:13:59;16.10;;;3.77;;
9080;SDS011;13509;50.760;6.080;2023-02-01T06:16:27;20.37;;;3.70;;
9080;SDS011;13509;50.760;6.080;2023-02-01T06:18:56;17.07;;;4.83;;
9080;SDS011;13509;50.760;6.080;2023-02-01T06:21:24;23.87;;;3.37;;
9080;SDS011;13509;50.760;6.080;2023-02-01T06:23:52;16.40;;;3.60;;
9080;SDS011;13509;50.760;6.080;2023-02-01T06:26:24;27.83;;;5.23;;
9080;SDS011;13509;50.760;6.080;2023-02-01T06:28:54;20.80;;;4.37;;
9080;SDS011;13509;50.760;6.080;2023-02-01T06:31:28;13.00;;;3.37;;
9080;SDS011;13509;50.760;6.080;2023-02-01T06:34:02;11.47;;;3.27;;
9080;SDS011;13509;50.760;6.080;2023-02-01T06:36:30;14.73;;;3.20;;
9080;SDS011;13509;50.760;6.080;2023-02-01T06:38:58;19.00;;;3.80;;
9080;SDS011;13509;50.760;6.080;2023-02-01T06:41:28;14.50;;;3.60;;
9080;SDS011;13509;50.760;6.080;2023-02-01T06:43:56;19.33;;;4.27;;
9080;SDS011;13509;50.760;6.080;2023-02-01T06:46:24;16.43;;;3.50;;
9080;SDS011;13509;50.760;6.080;2023-02-01T06:48:52;20.10;;;3.87;;
9080;SDS011;13509;50.760;6.080;2023-02-01T06:51:22;23.20;;;3.63;;
9080;SDS011;13509;50.760;6.080;2023-02-01T06:53:51;20.67;;;3.63;;
9080;SDS011;13509;50.760;6.080;2023-02-01T06:56:19;15.90;;;3.50;;
9080;SDS011;13509;50.760;6.080;2023-02-01T06:58:49;19.33;;;3.63;;
9080;SDS011;13509;50.760;6.080;2023-02-01T07:01:17;21.57;;;3.97;;
9080;SDS011;13509;50.760;6.080;2023-02-01T07:03:47;14.93;;;3.77;;
9080;SDS011;13509;50.760;6.080;2023-02-01T07:06:16;20.77;;;3.90;;
9080;SDS011;13509;50.760;6.080;2023-02-01T07:08:44;11.07;;;3.10;;
9080;SDS011;13509;50.760;6.080;2023-02-01T07:11:13;15.63;;;3.73;;
9080;SDS011;13509;50.760;6.080;2023-02-01T07:13:41;17.93;;;4.00;;
9080;SDS011;13509;50.760;6.080;2023-02-01T07:16:12;16.77;;;3.43;;
9080;SDS011;13509;50.760;6.080;2023-02-01T07:18:41;15.30;;;2.90;;
9080;SDS011;13509;50.760;6.080;2023-02-01T07:21:09;20.67;;;3.90;;
9080;SDS011;13509;50.760;6.080;2023-02-01T07:23:37;18.63;;;3.97;;
9080;SDS011;13509;50.760;6.080;2023-02-01T07:26:06;23.27;;;4.90;;
9080;SDS011;13509;50.760;6.080;2023-02-01T07:28:35;24.30;;;3.97;;
9080;SDS011;13509;50.760;6.080;2023-02-01T07:31:04;21.93;;;3.63;;
9080;SDS011;13509;50.760;6.080;2023-02-01T07:33:34;18.87;;;3.93;;
9080;SDS011;13509;50.760;6.080;2023-02-01T07:36:03;9.33;;;3.60;;
9080;SDS011;13509;50.760;6.080;2023-02-01T07:38:32;20.73;;;3.97;;
9080;SDS011;13509;50.760;6.080;2023-02-01T07:41:00;20.73;;;3.67;;
9080;SDS011;13509;50.760;6.080;2023-02-01T07:43:29;23.90;;;3.83;;
9080;SDS011;13509;50.760;6.080;2023-02-01T07:45:57;21.90;;;3.93;;
9080;SDS011;13509;50.760;6.080;2023-02-01T07:48:25;18.70;;;3.70;;
9080;SDS011;13509;50.760;6.080;2023-02-01T07:50:58;17.40;;;3.90;;
9080;SDS011;13509;50.760;6.080;2023-02-01T07:53:27;15.73;;;3.93;;
9080;SDS011;13509;50.760;6.080;2023-02-01T07:55:56;17.83;;;3.70;;
9080;SDS011;13509;50.760;6.080;2023-02-01T07:58:25;13.33;;;4.03;;
9080;SDS011;13509;50.760;6.080;2023-02-01T08:00:53;18.90;;;3.53;;
9080;SDS011;13509;50.760;6.080;2023-02-01T08:03:40;14.73;;;3.50;;
9080;SDS011;13509;50.760;6.080;2023-02-01T08:06:09;20.27;;;3.43;;
9080;SDS011;13509;50.760;6.080;2023-02-01T08:08:38;18.10;;;3.60;;
9080;SDS011;13509;50.760;6.080;2023-02-01T08:11:06;12.57;;;3.20;;
9080;SDS011;13509;50.760;6.080;2023-02-01T08:13:34;13.60;;;3.57;;
9080;SDS011;13509;50.760;6.080;2023-02-01T08:16:03;17.67;;;3.33;;
9080;SDS011;13509;50.760;6.080;2023-02-01T08:18:32;14.97;;;3.47;;
9080;SDS011;13509;50.760;6.080;2023-02-01T08:21:02;12.20;;;3.20;;
9080;SDS011;13509;50.760;6.080;2023-02-01T08:23:32;15.37;;;3.73;;
9080;SDS011;13509;50.760;6.080;2023-02-01T08:26:04;19.07;;;3.40;;
9080;SDS011;13509;50.760;6.080;2023-02-01T08:28:33;17.73;;;3.50;;
9080;SDS011;13509;50.760;6.080;2023-02-01T08:31:06;18.80;;;3.10;;
9080;SDS011;13509;50.760;6.080;2023-02-01T08:33:36;17.83;;;4.77;;
9080;SDS011;13509;50.760;6.080;2023-02-01T08:36:05;18.03;;;3.57;;
9080;SDS011;13509;50.760;6.080;2023-02-01T08:38:35;13.30;;;3.23;;
9080;SDS011;13509;50.760;6.080;2023-02-01T08:41:04;23.57;;;3.07;;
9080;SDS011;13509;50.760;6.080;2023-02-01T08:43:33;17.50;;;3.30;;
9080;SDS011;13509;50.760;6.080;2023-02-01T08:46:01;20.13;;;4.77;;
9080;SDS011;13509;50.760;6.080;2023-02-01T08:48:29;14.33;;;3.23;;
9080;SDS011;13509;50.760;6.080;2023-02-01T08:51:00;14.33;;;3.77;;
9080;SDS011;13509;50.760;6.080;2023-02-01T08:53:28;19.40;;;3.53;;
9080;SDS011;13509;50.760;6.080;2023-02-01T08:55:58;15.37;;;3.87;;
9080;SDS011;13509;50.760;6.080;2023-02-01T08:58:26;16.47;;;3.80;;
9080;SDS011;13509;50.760;6.080;2023-02-01T09:00:55;13.60;;;3.63;;
9080;SDS011;13509;50.760;6.080;2023-02-01T09:03:23;18.80;;;3.70;;
9080;SDS011;13509;50.760;6.080;2023-02-01T09:05:51;11.97;;;3.50;;
9080;SDS011;13509;50.760;6.080;2023-02-01T09:08:19;18.33;;;3.17;;
9080;SDS011;13509;50.760;6.080;2023-02-01T09:10:48;13.90;;;3.13;;
9080;SDS011;13509;50.760;6.080;2023-02-01T09:13:17;19.17;;;3.73;;
9080;SDS011;13509;50.760;6.080;2023-02-01T09:15:46;15.83;;;3.40;;
9080;SDS011;13509;50.760;6.080;2023-02-01T09:18:14;13.50;;;2.73;;
9080;SDS011;13509;50.760;6.080;2023-02-01T09:20:42;16.57;;;4.00;;
9080;SDS011;13509;50.760;6.080;2023-02-01T09:23:10;13.07;;;3.20;;
9080;SDS011;13509;50.760;6.080;2023-02-01T09:25:38;15.40;;;3.37;;
9080;SDS011;13509;50.760;6.080;2023-02-01T09:28:06;18.27;;;3.60;;
9080;SDS011;13509;50.760;6.080;2023-02-01T09:30:36;9.97;;;2.83;;
9080;SDS011;13509;50.760;6.080;2023-02-01T09:33:05;15.83;;;3.30;;
9080;SDS011;13509;50.760;6.080;2023-02-01T09:35:33;17.70;;;3.10;;
9080;SDS011;13509;50.760;6.080;2023-02-01T09:38:01;16.73;;;3.63;;
9080;SDS011;13509;50.760;6.080;2023-02-01T09:40:29;13.87;;;3.27;;
9080;SDS011;13509;50.760;6.080;2023-02-01T09:43:05;16.40;;;3.10;;
9080;SDS011;13509;50.760;6.080;2023-02-01T09:45:38;15.20;;;4.20;;
9080;SDS011;13509;50.760;6.080;2023-02-01T09:48:13;19.73;;;3.80;;
9080;SDS011;13509;50.760;6.080;2023-02-01T09:50:44;13.70;;;3.30;;
9080;SDS011;13509;50.760;6.080;2023-02-01T09:53:15;14.57;;;4.10;;
9080;SDS011;13509;50.760;6.080;2023-02-01T09:55:48;15.87;;;3.60;;
9080;SDS011;13509;50.760;6.080;2023-02-01T09:58:18;11.77;;;3.40;;
9080;SDS011;13509;50.760;6.080;2023-02-01T10:00:52;18.53;;;4.63;;
9080;SDS011;13509;50.760;6.080;2023-02-01T10:03:21;13.70;;;3.80;;
9080;SDS011;13509;50.760;6.080;2023-02-01T10:06:01;16.33;;;2.90;;
9080;SDS011;13509;50.760;6.080;2023-02-01T10:08:32;16.50;;;3.10;;
9080;SDS011;13509;50.760;6.080;2023-02-01T10:11:03;19.90;;;3.83;;
9080;SDS011;13509;50.760;6.080;2023-02-01T10:13:43;13.47;;;3.37;;
9080;SDS011;13509;50.760;6.080;2023-02-01T10:16:15;17.20;;;3.70;;
9080;SDS011;13509;50.760;6.080;2023-02-01T10:18:52;16.20;;;3.50;;
9080;SDS011;13509;50.760;6.080;2023-02-01T10:21:30;14.43;;;3.13;;
9080;SDS011;13509;50.760;6.080;2023-02-01T10:24:08;17.90;;;3.30;;
9080;SDS011;13509;50.760;6.080;2023-02-01T10:26:44;14.47;;;3.50;;
9080;SDS011;13509;50.760;6.080;2023-02-01T10:29:14;14.43;;;2.80;;
9080;SDS011;13509;50.760;6.080;2023-02-01T10:31:45;13.73;;;3.73;;
9080;SDS011;13509;50.760;6.080;2023-02-01T10:34:15;18.63;;;3.53;;
9080;SDS011;13509;50.760;6.080;2023-02-01T10:36:49;12.40;;;3.00;;
9080;SDS011;13509;50.760;6.080;2023-02-01T10:39:18;13.00;;;3.77;;
9080;SDS011;13509;50.760;6.080;2023-02-01T10:41:46;10.73;;;3.37;;
9080;SDS011;13509;50.760;6.080;2023-02-01T10:44:16;14.53;;;3.40;;
9080;SDS011;13509;50.760;6.080;2023-02-01T10:46:46;13.03;;;3.20;;
9080;SDS011;13509;50.760;6.080;2023-02-01T10:49:16;19.17;;;3.60;;
9080;SDS011;13509;50.760;6.080;2023-02-01T10:51:45;15.37;;;3.67;;
9080;SDS011;13509;50.760;6.080;2023-02-01T10:54:16;16.47;;;3.63;;
9080;SDS011;13509;50.760;6.080;2023-02-01T10:56:46;13.00;;;3.33;;
9080;SDS011;13509;50.760;6.080;2023-02-01T10:59:16;11.37;;;3.40;;
9080;SDS011;13509;50.760;6.080;2023-02-01T11:01:46;15.80;;;3.50;;
9080;SDS011;13509;50.760;6.080;2023-02-01T11:04:16;14.77;;;3.50;;
9080;SDS011;13509;50.760;6.080;2023-02-01T11:06:46;14.67;;;3.73;;
9080;SDS011;13509;50.760;6.080;2023-02-01T11:09:16;20.80;;;4.10;;
9080;SDS011;13509;50.760;6.080;2023-02-01T11:11:53;16.03;;;3.50;;
9080;SDS011;13509;50.760;6.080;2023-02-01T11:14:26;17.00;;;4.50;;
9080;SDS011;13509;50.760;6.080;2023-02-01T11:16:57;15.40;;;3.30;;
9080;SDS011;13509;50.760;6.080;2023-02-01T11:19:26;12.23;;;3.07;;
9080;SDS011;13509;50.760;6.080;2023-02-01T11:21:55;13.87;;;3.57;;
9080;SDS011;13509;50.760;6.080;2023-02-01T11:24:25;12.40;;;3.57;;
9080;SDS011;13509;50.760;6.080;2023-02-01T11:26:55;11.33;;;3.83;;
9080;SDS011;13509;50.760;6.080;2023-02-01T11:29:23;12.10;;;3.10;;
9080;SDS011;13509;50.760;6.080;2023-02-01T11:31:57;17.37;;;2.97;;
9080;SDS011;13509;50.760;6.080;2023-02-01T11:34:27;21.17;;;4.17;;
9080;SDS011;13509;50.760;6.080;2023-02-01T11:36:57;16.33;;;3.27;;
9080;SDS011;13509;50.760;6.080;2023-02-01T11:39:28;13.90;;;3.33;;
9080;SDS011;13509;50.760;6.080;2023-02-01T11:41:59;19.13;;;3.70;;
9080;SDS011;13509;50.760;6.080;2023-02-01T11:44:30;16.57;;;3.40;;
9080;SDS011;13509;50.760;6.080;2023-02-01T11:49:49;13.50;;;3.50;;
9080;SDS011;13509;50.760;6.080;2023-02-01T11:52:21;10.93;;;3.50;;
9080;SDS011;13509;50.760;6.080;2023-02-01T11:55:01;11.90;;;3.10;;
9080;SDS011;13509;50.760;6.080;2023-02-01T11:57:38;15.20;;;3.37;;
9080;SDS011;13509;50.760;6.080;2023-02-01T12:00:15;13.23;;;2.80;;
9080;SDS011;13509;50.760;6.080;2023-02-01T12:03:00;12.17;;;2.57;;
9080;SDS011;13509;50.760;6.080;2023-02-01T12:05:38;14.43;;;3.23;;
9080;SDS011;13509;50.760;6.080;2023-02-01T12:08:16;12.23;;;2.80;;
9080;SDS011;13509;50.760;6.080;2023-02-01T12:10:50;16.37;;;3.07;;
9080;SDS011;13509;50.760;6.080;2023-02-01T12:13:23;13.53;;;3.80;;
9080;SDS011;13509;50.760;6.080;2023-02-01T12:15:56;10.63;;;2.60;;
9080;SDS011;13509;50.760;6.080;2023-02-01T12:24:06;12.23;;;3.13;;
9080;SDS011;13509;50.760;6.080;2023-02-01T12:26:44;14.77;;;2.77;;
9080;SDS011;13509;50.760;6.080;2023-02-01T12:29:17;15.20;;;3.20;;
9080;SDS011;13509;50.760;6.080;2023-02-01T12:32:01;17.03;;;3.27;;
9080;SDS011;13509;50.760;6.080;2023-02-01T12:34:45;10.63;;;3.13;;
9080;SDS011;13509;50.760;6.080;2023-02-01T12:37:20;15.07;;;2.50;;
9080;SDS011;13509;50.760;6.080;2023-02-01T12:39:53;11.97;;;2.90;;
9080;SDS011;13509;50.760;6.080;2023-02-01T12:42:26;11.37;;;2.87;;
9080;SDS011;13509;50.760;6.080;2023-02-01T12:44:55;16.67;;;2.83;;
9080;SDS011;13509;50.760;6.080;2023-02-01T12:47:24;22.27;;;3.27;;
9080;SDS011;13509;50.760;6.080;2023-02-01T12:49:55;8.53;;;2.77;;
9080;SDS011;13509;50.760;6.080;2023-02-01T12:52:27;12.67;;;2.90;;
9080;SDS011;13509;50.760;6.080;2023-02-01T12:55:03;15.83;;;2.93;;
9080;SDS011;13509;50.760;6.080;2023-02-01T12:57:33;11.77;;;2.90;;
9080;SDS011;13509;50.760;6.080;2023-02-01T13:00:06;11.73;;;2.80;;
9080;SDS011;13509;50.760;6.080;2023-02-01T13:02:38;12.23;;;3.00;;
9080;SDS011;13509;50.760;6.080;2023-02-01T13:05:12;14.53;;;2.90;;
9080;SDS011;13509;50.760;6.080;2023-02-01T13:07:43;12.73;;;2.57;;
9080;SDS011;13509;50.760;6.080;2023-02-01T13:10:15;11.80;;;2.60;;
9080;SDS011;13509;50.760;6.080;2023-02-01T13:12:47;13.50;;;3.30;;
9080;SDS011;13509;50.760;6.080;2023-02-01T13:15:17;11.07;;;2.70;;
9080;SDS011;13509;50.760;6.080;2023-02-01T13:17:47;15.20;;;2.90;;
9080;SDS011;13509;50.760;6.080;2023-02-01T13:20:19;12.23;;;2.93;;
9080;SDS011;13509;50.760;6.080;2023-02-01T13:22:50;18.70;;;3.10;;
9080;SDS011;13509;50.760;6.080;2023-02-01T13:25:23;9.87;;;2.33;;
9080;SDS011;13509;50.760;6.080;2023-02-01T13:27:52;10.87;;;2.60;;
9080;SDS011;13509;50.760;6.080;2023-02-01T13:30:22;10.53;;;3.23;;
9080;SDS011;13509;50.760;6.080;2023-02-01T13:36:06;12.17;;;2.80;;
9080;SDS011;13509;50.760;6.080;2023-02-01T13:38:43;10.37;;;2.47;;
9080;SDS011;13509;50.760;6.080;2023-02-01T13:41:22;10.37;;;2.53;;
9080;SDS011;13509;50.760;6.080;2023-02-01T13:43:54;9.00;;;2.30;;
9080;SDS011;13509;50.760;6.080;2023-02-01T13:46:23;15.57;;;3.10;;
9080;SDS011;13509;50.760;6.080;2023-02-01T13:48:51;16.80;;;2.97;;
9080;SDS011;13509;50.760;6.080;2023-02-01T13:51:30;7.50;;;2.33;;
9080;SDS011;13509;50.760;6.080;2023-02-01T13:53:59;8.30;;;2.83;;
9080;SDS011;13509;50.760;6.080;2023-02-01T13:56:28;12.20;;;3.33;;
9080;SDS011;13509;50.760;6.080;2023-02-01T14:01:50;11.50;;;2.67;;
9080;SDS011;13509;50.760;6.080;2023-02-01T14:07:15;20.07;;;2.97;;
9080;SDS011;13509;50.760;6.080;2023-02-01T14:09:44;13.60;;;3.00;;
9080;SDS011;13509;50.760;6.080;2023-02-01T14:17:44;9.17;;;2.30;;
9080;SDS011;13509;50.760;6.080;2023-02-01T14:23:24;12.23;;;2.77;;
9080;SDS011;13509;50.760;6.080;2023-02-01T14:34:28;8.90;;;2.20;;
9080;SDS011;13509;50.760;6.080;2023-02-01T14:36:58;10.63;;;2.27;;
9080;SDS011;13509;50.760;6.080;2023-02-01T14:39:31;11.60;;;2.30;;
9080;SDS011;13509;50.760;6.080;2023-02-01T14:42:02;14.77;;;3.10;;
9080;SDS011;13509;50.760;6.080;2023-02-01T14:44:33;8.00;;;1.80;;
9080;SDS011;13509;50.760;6.080;2023-02-01T14:47:03;8.03;;;2.10;;
9080;SDS011;13509;50.760;6.080;2023-02-01T14:49:33;8.73;;;2.20;;
9080;SDS011;13509;50.760;6.080;2023-02-01T14:52:04;13.53;;;2.83;;
9080;SDS011;13509;50.760;6.080;2023-02-01T14:54:33;6.77;;;1.83;;
9080;SDS011;13509;50.760;6.080;2023-02-01T14:57:02;8.90;;;2.37;;
9080;SDS011;13509;50.760;6.080;2023-02-01T14:59:31;13.33;;;3.83;;
9080;SDS011;13509;50.760;6.080;2023-02-01T15:02:00;9.03;;;2.10;;
9080;SDS011;13509;50.760;6.080;2023-02-01T15:04:28;13.93;;;2.30;;
9080;SDS011;13509;50.760;6.080;2023-02-01T15:07:11;5.60;;;1.77;;
9080;SDS011;13509;50.760;6.080;2023-02-01T15:09:42;8.30;;;1.97;;
9080;SDS011;13509;50.760;6.080;2023-02-01T15:12:15;6.90;;;2.20;;
9080;SDS011;13509;50.760;6.080;2023-02-01T15:14:47;9.03;;;2.20;;
9080;SDS011;13509;50.760;6.080;2023-02-01T15:17:17;6.07;;;2.07;;
9080;SDS011;13509;50.760;6.080;2023-02-01T15:19:52;9.20;;;2.10;;
9080;SDS011;13509;50.760;6.080;2023-02-01T15:22:22;6.30;;;2.97;;
9080;SDS011;13509;50.760;6.080;2023-02-01T15:24:51;13.87;;;3.73;;
9080;SDS011;13509;50.760;6.080;2023-02-01T15:27:20;10.77;;;2.37;;
9080;SDS011;13509;50.760;6.080;2023-02-01T15:29:49;6.53;;;2.20;;
9080;SDS011;13509;50.760;6.080;2023-02-01T15:32:30;11.43;;;2.07;;
9080;SDS011;13509;50.760;6.080;2023-02-01T15:34:58;10.80;;;2.43;;
9080;SDS011;13509;50.760;6.080;2023-02-01T15:37:28;11.47;;;3.07;;
9080;SDS011;13509;50.760;6.080;2023-02-01T15:40:18;10.30;;;2.20;;
9080;SDS011;13509;50.760;6.080;2023-02-01T15:42:49;9.87;;;2.23;;
9080;SDS011;13509;50.760;6.080;2023-02-01T15:45:19;12.00;;;2.80;;
9080;SDS011;13509;50.760;6.080;2023-02-01T15:47:48;6.93;;;2.53;;